sensor_id;sensor_type;location;lat;lon;timestamp;P1;durP1;ratioP1;P2;durP2;ratioP2
34489;SDS011;20730;49.372;7.324;2023-04-30T00:02:08;30.63;;;19.02;;
34489;SDS011;20730;49.372;7.324;2023-04-30T00:04:34;31.05;;;19.83;;
34489;SDS011;20730;49.372;7.324;2023-04-30T00:07:02;31.15;;;19.83;;
34489;SDS011;20730;49.372;7.324;2023-04-30T00:09:29;26.55;;;19.25;;
34489;SDS011;20730;49.372;7.324;2023-04-30T00:11:55;29.05;;;19.10;;
34489;SDS011;20730;49.372;7.324;2023-04-30T00:14:22;32.33;;;20.02;;
34489;SDS011;20730;49.372;7.324;2023-04-30T00:16:49;28.88;;;18.35;;
34489;SDS011;20730;49.372;7.324;2023-04-30T00:19:16;30.08;;;19.10;;
34489;SDS011;20730;49.372;7.324;2023-04-30T00:21:42;34.15;;;20.52;;
34489;SDS011;20730;49.372;7.324;2023-04-30T00:24:09;31.10;;;19.20;;
34489;SDS011;20730;49.372;7.324;2023-04-30T00:26:36;31.33;;;18.55;;
34489;SDS011;20730;49.372;7.324;2023-04-30T00:29:02;30.77;;;19.67;;
34489;SDS011;20730;49.372;7.324;2023-04-30T00:31:30;28.52;;;17.98;;
34489;SDS011;20730;49.372;7.324;2023-04-30T00:33:56;30.75;;;20.77;;
34489;SDS011;20730;49.372;7.324;2023-04-30T00:36:23;28.23;;;18.25;;
34489;SDS011;20730;49.372;7.324;2023-04-30T00:38:50;30.70;;;19.35;;
34489;SDS011;20730;49.372;7.324;2023-04-30T00:41:17;29.02;;;18.60;;
34489;SDS011;20730;49.372;7.324;2023-04-30T00:43:44;30.73;;;18.70;;
34489;SDS011;20730;49.372;7.324;2023-04-30T00:46:12;31.98;;;18.60;;
34489;SDS011;20730;49.372;7.324;2023-04-30T00:48:39;32.65;;;19.27;;
34489;SDS011;20730;49.372;7.324;2023-04-30T00:51:06;29.33;;;18.17;;
34489;SDS011;20730;49.372;7.324;2023-04-30T00:53:33;33.28;;;19.25;;
34489;SDS011;20730;49.372;7.324;2023-04-30T00:56:00;29.30;;;18.33;;
34489;SDS011;20730;49.372;7.324;2023-04-30T00:58:27;27.23;;;18.63;;
34489;SDS011;20730;49.372;7.324;2023-04-30T01:00:53;31.40;;;18.75;;
34489;SDS011;20730;49.372;7.324;2023-04-30T01:03:21;30.40;;;19.88;;
34489;SDS011;20730;49.372;7.324;2023-04-30T01:05:48;32.35;;;20.00;;
34489;SDS011;20730;49.372;7.324;2023-04-30T01:08:15;27.42;;;19.50;;
34489;SDS011;20730;49.372;7.324;2023-04-30T01:10:53;28.38;;;18.15;;
34489;SDS011;20730;49.372;7.324;2023-04-30T01:13:28;33.10;;;18.77;;
34489;SDS011;20730;49.372;7.324;2023-04-30T01:16:09;33.30;;;20.88;;
34489;SDS011;20730;49.372;7.324;2023-04-30T01:19:01;33.22;;;19.50;;
34489;SDS011;20730;49.372;7.324;2023-04-30T01:21:31;28.75;;;18.25;;
34489;SDS011;20730;49.372;7.324;2023-04-30T01:29:25;27.13;;;17.80;;
34489;SDS011;20730;49.372;7.324;2023-04-30T01:31:52;29.58;;;19.45;;
34489;SDS011;20730;49.372;7.324;2023-04-30T01:34:19;31.95;;;20.70;;
34489;SDS011;20730;49.372;7.324;2023-04-30T01:43:04;28.83;;;19.67;;
34489;SDS011;20730;49.372;7.324;2023-04-30T01:48:33;31.33;;;20.95;;
34489;SDS011;20730;49.372;7.324;2023-04-30T01:53:51;31.00;;;20.05;;
34489;SDS011;20730;49.372;7.324;2023-04-30T01:56:23;30.50;;;20.92;;
34489;SDS011;20730;49.372;7.324;2023-04-30T01:58:53;31.88;;;20.50;;
34489;SDS011;20730;49.372;7.324;2023-04-30T02:01:27;31.73;;;21.55;;
34489;SDS011;20730;49.372;7.324;2023-04-30T02:03:58;33.70;;;21.55;;
34489;SDS011;20730;49.372;7.324;2023-04-30T02:06:25;34.90;;;21.60;;
34489;SDS011;20730;49.372;7.324;2023-04-30T02:08:55;28.70;;;20.15;;
34489;SDS011;20730;49.372;7.324;2023-04-30T02:11:27;33.30;;;20.52;;
34489;SDS011;20730;49.372;7.324;2023-04-30T02:13:54;29.88;;;20.00;;
34489;SDS011;20730;49.372;7.324;2023-04-30T02:16:21;32.28;;;19.73;;
34489;SDS011;20730;49.372;7.324;2023-04-30T02:18:48;34.35;;;21.45;;
34489;SDS011;20730;49.372;7.324;2023-04-30T02:21:15;32.08;;;20.67;;
34489;SDS011;20730;49.372;7.324;2023-04-30T02:23:42;34.42;;;21.52;;
34489;SDS011;20730;49.372;7.324;2023-04-30T02:26:08;34.63;;;21.13;;
34489;SDS011;20730;49.372;7.324;2023-04-30T02:28:35;35.45;;;22.13;;
34489;SDS011;20730;49.372;7.324;2023-04-30T02:31:02;37.80;;;21.30;;
34489;SDS011;20730;49.372;7.324;2023-04-30T02:33:28;32.70;;;21.75;;
34489;SDS011;20730;49.372;7.324;2023-04-30T02:35:57;31.27;;;21.55;;
34489;SDS011;20730;49.372;7.324;2023-04-30T02:38:25;31.77;;;21.33;;
34489;SDS011;20730;49.372;7.324;2023-04-30T02:40:52;31.33;;;22.13;;
34489;SDS011;20730;49.372;7.324;2023-04-30T02:43:18;38.92;;;23.38;;
34489;SDS011;20730;49.372;7.324;2023-04-30T02:45:45;37.45;;;22.15;;
34489;SDS011;20730;49.372;7.324;2023-04-30T02:48:12;34.03;;;22.17;;
34489;SDS011;20730;49.372;7.324;2023-04-30T02:50:39;35.83;;;22.38;;
34489;SDS011;20730;49.372;7.324;2023-04-30T02:53:05;32.70;;;22.13;;
34489;SDS011;20730;49.372;7.324;2023-04-30T02:55:32;37.00;;;22.33;;
34489;SDS011;20730;49.372;7.324;2023-04-30T02:57:58;32.92;;;22.15;;
34489;SDS011;20730;49.372;7.324;2023-04-30T03:00:25;35.80;;;22.45;;
34489;SDS011;20730;49.372;7.324;2023-04-30T03:02:52;35.13;;;22.10;;
34489;SDS011;20730;49.372;7.324;2023-04-30T03:05:19;35.58;;;22.02;;
34489;SDS011;20730;49.372;7.324;2023-04-30T03:07:46;34.97;;;22.63;;
34489;SDS011;20730;49.372;7.324;2023-04-30T03:10:12;36.30;;;22.58;;
34489;SDS011;20730;49.372;7.324;2023-04-30T03:12:39;36.90;;;22.60;;
34489;SDS011;20730;49.372;7.324;2023-04-30T03:15:06;37.70;;;21.80;;
34489;SDS011;20730;49.372;7.324;2023-04-30T03:17:33;32.15;;;22.92;;
34489;SDS011;20730;49.372;7.324;2023-04-30T03:20:00;35.88;;;22.00;;
34489;SDS011;20730;49.372;7.324;2023-04-30T03:22:27;38.13;;;23.45;;
34489;SDS011;20730;49.372;7.324;2023-04-30T03:24:53;36.40;;;22.70;;
34489;SDS011;20730;49.372;7.324;2023-04-30T03:27:20;34.45;;;23.67;;
34489;SDS011;20730;49.372;7.324;2023-04-30T03:29:47;34.65;;;22.75;;
34489;SDS011;20730;49.372;7.324;2023-04-30T03:32:14;33.05;;;23.60;;
34489;SDS011;20730;49.372;7.324;2023-04-30T03:34:41;34.25;;;23.33;;
34489;SDS011;20730;49.372;7.324;2023-04-30T03:37:07;33.05;;;23.08;;
34489;SDS011;20730;49.372;7.324;2023-04-30T03:39:34;36.35;;;23.48;;
34489;SDS011;20730;49.372;7.324;2023-04-30T03:42:01;32.47;;;22.58;;
34489;SDS011;20730;49.372;7.324;2023-04-30T03:44:28;36.17;;;24.27;;
34489;SDS011;20730;49.372;7.324;2023-04-30T03:46:55;36.33;;;23.40;;
34489;SDS011;20730;49.372;7.324;2023-04-30T03:49:22;38.38;;;24.95;;
34489;SDS011;20730;49.372;7.324;2023-04-30T03:51:49;36.55;;;24.55;;
34489;SDS011;20730;49.372;7.324;2023-04-30T03:54:16;41.60;;;25.13;;
34489;SDS011;20730;49.372;7.324;2023-04-30T03:56:43;34.50;;;24.00;;
34489;SDS011;20730;49.372;7.324;2023-04-30T03:59:09;36.17;;;24.33;;
34489;SDS011;20730;49.372;7.324;2023-04-30T04:01:36;37.53;;;24.85;;
34489;SDS011;20730;49.372;7.324;2023-04-30T04:04:03;34.58;;;23.77;;
34489;SDS011;20730;49.372;7.324;2023-04-30T04:06:31;36.05;;;24.10;;
34489;SDS011;20730;49.372;7.324;2023-04-30T04:08:58;35.05;;;23.75;;
34489;SDS011;20730;49.372;7.324;2023-04-30T04:11:25;37.25;;;23.48;;
34489;SDS011;20730;49.372;7.324;2023-04-30T04:13:51;40.45;;;26.67;;
34489;SDS011;20730;49.372;7.324;2023-04-30T04:16:18;37.47;;;25.08;;
34489;SDS011;20730;49.372;7.324;2023-04-30T04:18:45;36.88;;;23.73;;
34489;SDS011;20730;49.372;7.324;2023-04-30T04:21:12;41.00;;;24.90;;
34489;SDS011;20730;49.372;7.324;2023-04-30T04:23:39;34.35;;;22.17;;
34489;SDS011;20730;49.372;7.324;2023-04-30T04:26:05;38.78;;;25.30;;
34489;SDS011;20730;49.372;7.324;2023-04-30T04:28:32;36.25;;;24.15;;
34489;SDS011;20730;49.372;7.324;2023-04-30T04:30:59;42.85;;;26.25;;
34489;SDS011;20730;49.372;7.324;2023-04-30T04:33:25;40.80;;;25.40;;
34489;SDS011;20730;49.372;7.324;2023-04-30T04:35:53;37.67;;;25.30;;
34489;SDS011;20730;49.372;7.324;2023-04-30T04:38:20;38.30;;;24.88;;
34489;SDS011;20730;49.372;7.324;2023-04-30T04:40:51;34.60;;;24.27;;
34489;SDS011;20730;49.372;7.324;2023-04-30T04:43:20;38.83;;;25.42;;
34489;SDS011;20730;49.372;7.324;2023-04-30T04:45:47;40.92;;;25.48;;
34489;SDS011;20730;49.372;7.324;2023-04-30T04:48:14;36.28;;;23.40;;
34489;SDS011;20730;49.372;7.324;2023-04-30T04:50:41;31.50;;;23.02;;
34489;SDS011;20730;49.372;7.324;2023-04-30T04:53:08;34.67;;;24.88;;
34489;SDS011;20730;49.372;7.324;2023-04-30T04:55:34;36.17;;;23.27;;
34489;SDS011;20730;49.372;7.324;2023-04-30T04:58:01;35.10;;;24.08;;
34489;SDS011;20730;49.372;7.324;2023-04-30T05:00:28;34.17;;;23.85;;
34489;SDS011;20730;49.372;7.324;2023-04-30T05:02:55;34.20;;;23.80;;
34489;SDS011;20730;49.372;7.324;2023-04-30T05:05:22;33.40;;;23.95;;
34489;SDS011;20730;49.372;7.324;2023-04-30T05:07:48;37.22;;;24.75;;
34489;SDS011;20730;49.372;7.324;2023-04-30T05:10:18;34.25;;;23.55;;
34489;SDS011;20730;49.372;7.324;2023-04-30T05:12:44;32.60;;;22.50;;
34489;SDS011;20730;49.372;7.324;2023-04-30T05:15:11;35.10;;;24.17;;
34489;SDS011;20730;49.372;7.324;2023-04-30T05:17:38;34.80;;;23.80;;
34489;SDS011;20730;49.372;7.324;2023-04-30T05:20:04;32.38;;;23.60;;
34489;SDS011;20730;49.372;7.324;2023-04-30T05:22:32;34.05;;;23.27;;
34489;SDS011;20730;49.372;7.324;2023-04-30T05:24:59;32.45;;;21.77;;
34489;SDS011;20730;49.372;7.324;2023-04-30T05:27:26;33.20;;;23.25;;
34489;SDS011;20730;49.372;7.324;2023-04-30T05:29:53;32.78;;;23.35;;
34489;SDS011;20730;49.372;7.324;2023-04-30T05:32:21;31.75;;;23.92;;
34489;SDS011;20730;49.372;7.324;2023-04-30T05:34:48;27.90;;;20.90;;
34489;SDS011;20730;49.372;7.324;2023-04-30T05:37:15;28.17;;;20.42;;
34489;SDS011;20730;49.372;7.324;2023-04-30T05:39:42;32.35;;;22.00;;
34489;SDS011;20730;49.372;7.324;2023-04-30T05:42:09;28.45;;;22.08;;
34489;SDS011;20730;49.372;7.324;2023-04-30T05:44:36;36.22;;;21.45;;
34489;SDS011;20730;49.372;7.324;2023-04-30T05:47:02;28.13;;;19.88;;
34489;SDS011;20730;49.372;7.324;2023-04-30T05:49:29;28.88;;;22.48;;
34489;SDS011;20730;49.372;7.324;2023-04-30T05:51:56;33.33;;;23.35;;
34489;SDS011;20730;49.372;7.324;2023-04-30T05:54:22;29.20;;;20.73;;
34489;SDS011;20730;49.372;7.324;2023-04-30T05:56:49;29.63;;;21.88;;
34489;SDS011;20730;49.372;7.324;2023-04-30T05:59:16;29.95;;;21.88;;
34489;SDS011;20730;49.372;7.324;2023-04-30T06:01:42;29.58;;;19.67;;
34489;SDS011;20730;49.372;7.324;2023-04-30T06:04:09;29.33;;;22.15;;
34489;SDS011;20730;49.372;7.324;2023-04-30T06:06:36;26.88;;;21.08;;
34489;SDS011;20730;49.372;7.324;2023-04-30T06:09:03;31.20;;;20.23;;
34489;SDS011;20730;49.372;7.324;2023-04-30T06:11:30;27.30;;;21.02;;
34489;SDS011;20730;49.372;7.324;2023-04-30T06:13:57;25.65;;;19.45;;
34489;SDS011;20730;49.372;7.324;2023-04-30T06:16:23;28.48;;;20.80;;
34489;SDS011;20730;49.372;7.324;2023-04-30T06:18:50;28.48;;;21.02;;
34489;SDS011;20730;49.372;7.324;2023-04-30T06:21:19;28.42;;;20.52;;
34489;SDS011;20730;49.372;7.324;2023-04-30T06:23:46;28.17;;;19.85;;
34489;SDS011;20730;49.372;7.324;2023-04-30T06:26:12;28.58;;;20.70;;
34489;SDS011;20730;49.372;7.324;2023-04-30T06:28:40;28.75;;;19.90;;
34489;SDS011;20730;49.372;7.324;2023-04-30T06:31:07;23.38;;;18.23;;
34489;SDS011;20730;49.372;7.324;2023-04-30T06:33:34;25.90;;;17.83;;
34489;SDS011;20730;49.372;7.324;2023-04-30T06:36:00;23.33;;;17.67;;
34489;SDS011;20730;49.372;7.324;2023-04-30T06:38:27;28.25;;;18.23;;
34489;SDS011;20730;49.372;7.324;2023-04-30T06:40:54;25.95;;;18.15;;
34489;SDS011;20730;49.372;7.324;2023-04-30T06:43:21;22.75;;;17.88;;
34489;SDS011;20730;49.372;7.324;2023-04-30T06:45:47;23.80;;;17.95;;
34489;SDS011;20730;49.372;7.324;2023-04-30T06:48:14;24.00;;;16.95;;
34489;SDS011;20730;49.372;7.324;2023-04-30T06:50:40;22.10;;;16.73;;
34489;SDS011;20730;49.372;7.324;2023-04-30T06:53:10;25.75;;;18.27;;
34489;SDS011;20730;49.372;7.324;2023-04-30T06:55:37;24.58;;;18.92;;
34489;SDS011;20730;49.372;7.324;2023-04-30T06:58:04;23.45;;;18.50;;
34489;SDS011;20730;49.372;7.324;2023-04-30T07:00:31;25.13;;;17.77;;
34489;SDS011;20730;49.372;7.324;2023-04-30T07:02:58;24.63;;;17.67;;
34489;SDS011;20730;49.372;7.324;2023-04-30T07:05:29;20.48;;;18.25;;
34489;SDS011;20730;49.372;7.324;2023-04-30T07:07:57;20.23;;;16.35;;
34489;SDS011;20730;49.372;7.324;2023-04-30T07:10:24;21.13;;;16.48;;
34489;SDS011;20730;49.372;7.324;2023-04-30T07:12:51;21.60;;;15.35;;
34489;SDS011;20730;49.372;7.324;2023-04-30T07:15:18;19.38;;;13.55;;
34489;SDS011;20730;49.372;7.324;2023-04-30T07:17:45;19.42;;;14.63;;
34489;SDS011;20730;49.372;7.324;2023-04-30T07:20:11;21.17;;;14.32;;
34489;SDS011;20730;49.372;7.324;2023-04-30T07:22:40;16.13;;;13.38;;
34489;SDS011;20730;49.372;7.324;2023-04-30T07:25:09;20.17;;;13.10;;
34489;SDS011;20730;49.372;7.324;2023-04-30T07:27:37;16.20;;;13.68;;
34489;SDS011;20730;49.372;7.324;2023-04-30T07:30:04;17.65;;;12.82;;
34489;SDS011;20730;49.372;7.324;2023-04-30T07:32:31;16.08;;;13.15;;
34489;SDS011;20730;49.372;7.324;2023-04-30T07:34:58;17.80;;;12.95;;
34489;SDS011;20730;49.372;7.324;2023-04-30T07:37:24;15.98;;;11.73;;
34489;SDS011;20730;49.372;7.324;2023-04-30T07:39:51;15.00;;;12.05;;
34489;SDS011;20730;49.372;7.324;2023-04-30T07:42:18;14.45;;;11.73;;
34489;SDS011;20730;49.372;7.324;2023-04-30T07:44:45;12.30;;;10.93;;
34489;SDS011;20730;49.372;7.324;2023-04-30T07:47:11;13.27;;;11.52;;
34489;SDS011;20730;49.372;7.324;2023-04-30T07:49:38;14.70;;;11.00;;
34489;SDS011;20730;49.372;7.324;2023-04-30T07:52:05;11.27;;;9.95;;
34489;SDS011;20730;49.372;7.324;2023-04-30T07:54:33;15.82;;;10.05;;
34489;SDS011;20730;49.372;7.324;2023-04-30T07:57:01;12.70;;;8.85;;
34489;SDS011;20730;49.372;7.324;2023-04-30T07:59:29;12.68;;;9.63;;
34489;SDS011;20730;49.372;7.324;2023-04-30T08:01:55;11.75;;;7.97;;
34489;SDS011;20730;49.372;7.324;2023-04-30T08:04:22;12.13;;;9.00;;
34489;SDS011;20730;49.372;7.324;2023-04-30T08:06:49;11.35;;;10.15;;
34489;SDS011;20730;49.372;7.324;2023-04-30T08:09:15;11.27;;;10.15;;
34489;SDS011;20730;49.372;7.324;2023-04-30T08:11:42;12.57;;;9.43;;
34489;SDS011;20730;49.372;7.324;2023-04-30T08:14:09;13.32;;;9.20;;
34489;SDS011;20730;49.372;7.324;2023-04-30T08:16:35;13.13;;;10.00;;
34489;SDS011;20730;49.372;7.324;2023-04-30T08:19:02;11.57;;;9.10;;
34489;SDS011;20730;49.372;7.324;2023-04-30T08:21:30;13.63;;;9.90;;
34489;SDS011;20730;49.372;7.324;2023-04-30T08:23:57;10.30;;;8.77;;
34489;SDS011;20730;49.372;7.324;2023-04-30T08:26:24;10.73;;;9.52;;
34489;SDS011;20730;49.372;7.324;2023-04-30T08:28:51;13.60;;;10.00;;
34489;SDS011;20730;49.372;7.324;2023-04-30T08:31:17;12.23;;;10.35;;
34489;SDS011;20730;49.372;7.324;2023-04-30T08:33:44;12.98;;;8.98;;
34489;SDS011;20730;49.372;7.324;2023-04-30T08:36:11;10.30;;;7.93;;
34489;SDS011;20730;49.372;7.324;2023-04-30T08:38:37;10.80;;;7.65;;
34489;SDS011;20730;49.372;7.324;2023-04-30T08:41:08;10.00;;;8.13;;
34489;SDS011;20730;49.372;7.324;2023-04-30T08:43:37;10.38;;;7.78;;
34489;SDS011;20730;49.372;7.324;2023-04-30T08:46:04;10.68;;;7.28;;
34489;SDS011;20730;49.372;7.324;2023-04-30T08:48:31;7.30;;;5.93;;
34489;SDS011;20730;49.372;7.324;2023-04-30T08:51:01;9.07;;;5.43;;
34489;SDS011;20730;49.372;7.324;2023-04-30T08:53:29;8.15;;;5.95;;
34489;SDS011;20730;49.372;7.324;2023-04-30T08:55:57;8.57;;;6.20;;
34489;SDS011;20730;49.372;7.324;2023-04-30T08:58:23;8.48;;;6.50;;
34489;SDS011;20730;49.372;7.324;2023-04-30T09:00:50;6.28;;;5.45;;
34489;SDS011;20730;49.372;7.324;2023-04-30T09:03:17;8.70;;;6.13;;
34489;SDS011;20730;49.372;7.324;2023-04-30T09:05:43;7.45;;;5.25;;
34489;SDS011;20730;49.372;7.324;2023-04-30T09:08:15;9.55;;;5.75;;
34489;SDS011;20730;49.372;7.324;2023-04-30T09:10:42;9.25;;;6.32;;
34489;SDS011;20730;49.372;7.324;2023-04-30T09:13:09;4.57;;;4.13;;
34489;SDS011;20730;49.372;7.324;2023-04-30T09:15:38;11.82;;;5.75;;
34489;SDS011;20730;49.372;7.324;2023-04-30T09:20:34;7.65;;;5.93;;
34489;SDS011;20730;49.372;7.324;2023-04-30T09:23:08;8.15;;;5.60;;
34489;SDS011;20730;49.372;7.324;2023-04-30T09:25:41;9.82;;;6.47;;
34489;SDS011;20730;49.372;7.324;2023-04-30T09:28:12;7.68;;;6.10;;
34489;SDS011;20730;49.372;7.324;2023-04-30T09:30:39;8.68;;;5.68;;
34489;SDS011;20730;49.372;7.324;2023-04-30T09:33:06;7.45;;;5.15;;
34489;SDS011;20730;49.372;7.324;2023-04-30T09:35:38;6.10;;;5.50;;
34489;SDS011;20730;49.372;7.324;2023-04-30T09:38:05;5.97;;;4.30;;
34489;SDS011;20730;49.372;7.324;2023-04-30T09:40:36;4.20;;;3.60;;
34489;SDS011;20730;49.372;7.324;2023-04-30T09:43:04;8.27;;;3.85;;
34489;SDS011;20730;49.372;7.324;2023-04-30T09:45:40;6.15;;;4.60;;
34489;SDS011;20730;49.372;7.324;2023-04-30T09:48:22;5.43;;;4.05;;
34489;SDS011;20730;49.372;7.324;2023-04-30T09:50:50;4.72;;;3.92;;
34489;SDS011;20730;49.372;7.324;2023-04-30T09:53:17;5.13;;;4.18;;
34489;SDS011;20730;49.372;7.324;2023-04-30T09:55:48;4.40;;;4.00;;
34489;SDS011;20730;49.372;7.324;2023-04-30T09:58:16;4.75;;;3.40;;
34489;SDS011;20730;49.372;7.324;2023-04-30T10:00:44;5.10;;;3.70;;
34489;SDS011;20730;49.372;7.324;2023-04-30T10:03:12;4.78;;;3.58;;
34489;SDS011;20730;49.372;7.324;2023-04-30T10:05:40;4.70;;;3.92;;
34489;SDS011;20730;49.372;7.324;2023-04-30T10:08:09;6.80;;;4.15;;
34489;SDS011;20730;49.372;7.324;2023-04-30T10:11:01;4.10;;;3.67;;
34489;SDS011;20730;49.372;7.324;2023-04-30T10:16:03;4.30;;;3.42;;
34489;SDS011;20730;49.372;7.324;2023-04-30T10:18:34;4.47;;;3.63;;
34489;SDS011;20730;49.372;7.324;2023-04-30T10:21:03;6.28;;;3.85;;
34489;SDS011;20730;49.372;7.324;2023-04-30T10:23:36;5.38;;;3.72;;
34489;SDS011;20730;49.372;7.324;2023-04-30T10:26:03;4.25;;;3.58;;
34489;SDS011;20730;49.372;7.324;2023-04-30T10:28:31;4.00;;;3.60;;
34489;SDS011;20730;49.372;7.324;2023-04-30T10:30:58;6.68;;;4.45;;
34489;SDS011;20730;49.372;7.324;2023-04-30T10:36:32;4.97;;;3.90;;
34489;SDS011;20730;49.372;7.324;2023-04-30T10:39:04;5.55;;;4.10;;
34489;SDS011;20730;49.372;7.324;2023-04-30T10:41:31;5.05;;;3.72;;
34489;SDS011;20730;49.372;7.324;2023-04-30T10:43:59;4.97;;;3.67;;
34489;SDS011;20730;49.372;7.324;2023-04-30T10:46:27;6.22;;;4.28;;
34489;SDS011;20730;49.372;7.324;2023-04-30T10:48:54;4.85;;;4.03;;
34489;SDS011;20730;49.372;7.324;2023-04-30T10:51:21;5.38;;;4.20;;
34489;SDS011;20730;49.372;7.324;2023-04-30T10:53:49;8.48;;;4.30;;
34489;SDS011;20730;49.372;7.324;2023-04-30T10:56:30;8.27;;;4.60;;
34489;SDS011;20730;49.372;7.324;2023-04-30T10:59:00;4.57;;;3.88;;
34489;SDS011;20730;49.372;7.324;2023-04-30T11:01:28;5.68;;;3.72;;
34489;SDS011;20730;49.372;7.324;2023-04-30T11:04:08;8.02;;;4.18;;
34489;SDS011;20730;49.372;7.324;2023-04-30T11:06:54;6.05;;;4.32;;
34489;SDS011;20730;49.372;7.324;2023-04-30T11:09:35;5.78;;;4.30;;
34489;SDS011;20730;49.372;7.324;2023-04-30T11:14:41;6.35;;;4.72;;
34489;SDS011;20730;49.372;7.324;2023-04-30T11:17:10;5.30;;;4.30;;
34489;SDS011;20730;49.372;7.324;2023-04-30T11:19:47;4.82;;;4.15;;
34489;SDS011;20730;49.372;7.324;2023-04-30T11:22:15;7.10;;;4.10;;
34489;SDS011;20730;49.372;7.324;2023-04-30T11:27:20;6.27;;;4.37;;
34489;SDS011;20730;49.372;7.324;2023-04-30T11:29:49;6.15;;;4.47;;
34489;SDS011;20730;49.372;7.324;2023-04-30T11:32:17;4.68;;;4.05;;
34489;SDS011;20730;49.372;7.324;2023-04-30T11:34:45;4.53;;;3.45;;
34489;SDS011;20730;49.372;7.324;2023-04-30T11:37:12;4.30;;;3.78;;
34489;SDS011;20730;49.372;7.324;2023-04-30T11:39:44;5.97;;;3.60;;
34489;SDS011;20730;49.372;7.324;2023-04-30T11:42:18;5.43;;;3.80;;
34489;SDS011;20730;49.372;7.324;2023-04-30T11:44:45;5.88;;;4.10;;
34489;SDS011;20730;49.372;7.324;2023-04-30T11:47:13;4.70;;;3.72;;
34489;SDS011;20730;49.372;7.324;2023-04-30T11:49:43;5.88;;;4.32;;
34489;SDS011;20730;49.372;7.324;2023-04-30T11:52:11;5.47;;;3.80;;
34489;SDS011;20730;49.372;7.324;2023-04-30T11:54:38;4.45;;;3.78;;
34489;SDS011;20730;49.372;7.324;2023-04-30T11:57:05;5.22;;;4.28;;
34489;SDS011;20730;49.372;7.324;2023-04-30T12:02:06;4.72;;;3.30;;
34489;SDS011;20730;49.372;7.324;2023-04-30T12:04:33;4.80;;;3.58;;
34489;SDS011;20730;49.372;7.324;2023-04-30T12:07:01;5.07;;;3.67;;
34489;SDS011;20730;49.372;7.324;2023-04-30T12:09:28;3.88;;;3.50;;
34489;SDS011;20730;49.372;7.324;2023-04-30T12:11:55;5.10;;;3.97;;
34489;SDS011;20730;49.372;7.324;2023-04-30T12:14:23;4.45;;;3.42;;
34489;SDS011;20730;49.372;7.324;2023-04-30T12:16:51;6.55;;;3.72;;
34489;SDS011;20730;49.372;7.324;2023-04-30T12:19:19;5.88;;;3.17;;
34489;SDS011;20730;49.372;7.324;2023-04-30T12:21:52;4.38;;;3.60;;
34489;SDS011;20730;49.372;7.324;2023-04-30T12:24:20;3.88;;;3.20;;
34489;SDS011;20730;49.372;7.324;2023-04-30T12:26:49;4.55;;;3.17;;
34489;SDS011;20730;49.372;7.324;2023-04-30T12:29:18;5.05;;;3.45;;
34489;SDS011;20730;49.372;7.324;2023-04-30T12:31:47;4.70;;;3.55;;
34489;SDS011;20730;49.372;7.324;2023-04-30T12:34:15;4.00;;;3.55;;
34489;SDS011;20730;49.372;7.324;2023-04-30T12:36:43;5.43;;;3.13;;
34489;SDS011;20730;49.372;7.324;2023-04-30T12:39:12;5.63;;;3.47;;
34489;SDS011;20730;49.372;7.324;2023-04-30T12:41:46;3.92;;;3.30;;
34489;SDS011;20730;49.372;7.324;2023-04-30T12:46:48;3.85;;;3.22;;
34489;SDS011;20730;49.372;7.324;2023-04-30T12:49:22;4.03;;;3.13;;
34489;SDS011;20730;49.372;7.324;2023-04-30T12:51:50;4.15;;;3.20;;
34489;SDS011;20730;49.372;7.324;2023-04-30T12:54:23;4.90;;;3.25;;
34489;SDS011;20730;49.372;7.324;2023-04-30T12:57:01;3.67;;;2.88;;
34489;SDS011;20730;49.372;7.324;2023-04-30T12:59:30;4.65;;;3.15;;
34489;SDS011;20730;49.372;7.324;2023-04-30T13:02:04;4.68;;;3.50;;
34489;SDS011;20730;49.372;7.324;2023-04-30T13:04:39;3.88;;;2.70;;
34489;SDS011;20730;49.372;7.324;2023-04-30T13:07:07;4.05;;;3.00;;
34489;SDS011;20730;49.372;7.324;2023-04-30T13:09:34;4.50;;;2.90;;
34489;SDS011;20730;49.372;7.324;2023-04-30T13:12:02;2.72;;;2.53;;
34489;SDS011;20730;49.372;7.324;2023-04-30T13:14:32;4.80;;;3.00;;
34489;SDS011;20730;49.372;7.324;2023-04-30T13:16:59;4.07;;;2.70;;
34489;SDS011;20730;49.372;7.324;2023-04-30T13:19:26;3.70;;;2.67;;
34489;SDS011;20730;49.372;7.324;2023-04-30T13:21:54;3.20;;;2.90;;
34489;SDS011;20730;49.372;7.324;2023-04-30T13:24:20;3.53;;;2.63;;
34489;SDS011;20730;49.372;7.324;2023-04-30T13:26:47;3.97;;;2.75;;
34489;SDS011;20730;49.372;7.324;2023-04-30T13:29:14;5.75;;;2.95;;
34489;SDS011;20730;49.372;7.324;2023-04-30T13:31:41;3.85;;;2.58;;
34489;SDS011;20730;49.372;7.324;2023-04-30T13:34:08;4.80;;;2.63;;
34489;SDS011;20730;49.372;7.324;2023-04-30T13:36:35;4.25;;;2.35;;
34489;SDS011;20730;49.372;7.324;2023-04-30T13:39:02;2.50;;;2.22;;
34489;SDS011;20730;49.372;7.324;2023-04-30T13:41:29;3.63;;;2.42;;
34489;SDS011;20730;49.372;7.324;2023-04-30T13:43:56;4.00;;;2.50;;
34489;SDS011;20730;49.372;7.324;2023-04-30T13:46:23;2.78;;;2.25;;
34489;SDS011;20730;49.372;7.324;2023-04-30T13:48:50;7.20;;;2.35;;
34489;SDS011;20730;49.372;7.324;2023-04-30T13:51:18;3.25;;;2.20;;
34489;SDS011;20730;49.372;7.324;2023-04-30T13:53:45;2.42;;;2.05;;
34489;SDS011;20730;49.372;7.324;2023-04-30T13:56:12;2.75;;;2.47;;
34489;SDS011;20730;49.372;7.324;2023-04-30T13:58:40;2.35;;;2.00;;
34489;SDS011;20730;49.372;7.324;2023-04-30T14:01:07;4.60;;;2.25;;
34489;SDS011;20730;49.372;7.324;2023-04-30T14:03:34;2.78;;;2.20;;
34489;SDS011;20730;49.372;7.324;2023-04-30T14:06:01;2.85;;;2.38;;
34489;SDS011;20730;49.372;7.324;2023-04-30T14:08:28;3.63;;;2.20;;
34489;SDS011;20730;49.372;7.324;2023-04-30T14:10:57;2.55;;;2.10;;
34489;SDS011;20730;49.372;7.324;2023-04-30T14:13:23;4.70;;;1.98;;
34489;SDS011;20730;49.372;7.324;2023-04-30T14:15:50;4.70;;;2.20;;
34489;SDS011;20730;49.372;7.324;2023-04-30T14:18:17;3.72;;;2.53;;
34489;SDS011;20730;49.372;7.324;2023-04-30T14:23:14;3.65;;;1.83;;
34489;SDS011;20730;49.372;7.324;2023-04-30T14:25:41;4.45;;;2.22;;
34489;SDS011;20730;49.372;7.324;2023-04-30T14:28:08;2.50;;;2.05;;
34489;SDS011;20730;49.372;7.324;2023-04-30T14:30:34;4.53;;;2.45;;
34489;SDS011;20730;49.372;7.324;2023-04-30T14:33:01;2.50;;;2.30;;
34489;SDS011;20730;49.372;7.324;2023-04-30T14:35:28;4.15;;;1.73;;
34489;SDS011;20730;49.372;7.324;2023-04-30T14:37:55;3.08;;;2.05;;
34489;SDS011;20730;49.372;7.324;2023-04-30T14:40:22;1.65;;;1.55;;
34489;SDS011;20730;49.372;7.324;2023-04-30T14:42:48;4.88;;;2.20;;
34489;SDS011;20730;49.372;7.324;2023-04-30T14:45:15;4.35;;;2.25;;
34489;SDS011;20730;49.372;7.324;2023-04-30T14:47:42;2.65;;;2.17;;
34489;SDS011;20730;49.372;7.324;2023-04-30T14:50:09;2.17;;;1.98;;
34489;SDS011;20730;49.372;7.324;2023-04-30T14:52:37;2.08;;;1.70;;
34489;SDS011;20730;49.372;7.324;2023-04-30T14:55:04;3.10;;;2.00;;
34489;SDS011;20730;49.372;7.324;2023-04-30T14:57:31;3.05;;;1.83;;
34489;SDS011;20730;49.372;7.324;2023-04-30T14:59:58;4.40;;;2.08;;
34489;SDS011;20730;49.372;7.324;2023-04-30T15:02:26;2.28;;;1.80;;
34489;SDS011;20730;49.372;7.324;2023-04-30T15:04:53;2.25;;;1.73;;
34489;SDS011;20730;49.372;7.324;2023-04-30T15:07:19;2.33;;;2.10;;
34489;SDS011;20730;49.372;7.324;2023-04-30T15:09:46;2.97;;;1.92;;
34489;SDS011;20730;49.372;7.324;2023-04-30T15:12:13;3.28;;;2.05;;
34489;SDS011;20730;49.372;7.324;2023-04-30T15:14:39;3.72;;;1.88;;
34489;SDS011;20730;49.372;7.324;2023-04-30T15:17:06;1.95;;;1.77;;